sensor_id;sensor_type;location;lat;lon;timestamp;P1;durP1;ratioP1;P2;durP2;ratioP2
48777;SDS011;34578;0.000;0.000;2023-10-19T00:02:17;4.50;;;2.50;;
48777;SDS011;34578;0.000;0.000;2023-10-19T00:07:19;3.70;;;2.38;;
48777;SDS011;34578;0.000;0.000;2023-10-19T00:12:19;4.23;;;2.67;;
48777;SDS011;34578;0.000;0.000;2023-10-19T00:17:22;3.80;;;2.55;;
48777;SDS011;34578;0.000;0.000;2023-10-19T00:22:23;2.97;;;2.13;;
48777;SDS011;34578;0.000;0.000;2023-10-19T00:27:24;6.68;;;2.40;;
48777;SDS011;34578;0.000;0.000;2023-10-19T00:32:27;3.50;;;2.20;;
48777;SDS011;34578;0.000;0.000;2023-10-19T00:37:29;4.97;;;2.13;;
48777;SDS011;34578;0.000;0.000;2023-10-19T00:42:32;5.43;;;2.88;;
48777;SDS011;34578;0.000;0.000;2023-10-19T00:47:32;2.57;;;1.97;;
48777;SDS011;34578;0.000;0.000;2023-10-19T00:52:42;3.45;;;2.40;;
48777;SDS011;34578;0.000;0.000;2023-10-19T00:57:46;4.30;;;2.30;;
48777;SDS011;34578;0.000;0.000;2023-10-19T01:02:50;6.65;;;1.92;;
48777;SDS011;34578;0.000;0.000;2023-10-19T01:07:52;2.90;;;2.03;;
48777;SDS011;34578;0.000;0.000;2023-10-19T01:12:57;2.25;;;2.05;;
48777;SDS011;34578;0.000;0.000;2023-10-19T01:17:59;5.07;;;2.30;;
48777;SDS011;34578;0.000;0.000;2023-10-19T01:28:08;2.65;;;2.28;;
48777;SDS011;34578;0.000;0.000;2023-10-19T01:33:10;2.25;;;2.05;;
48777;SDS011;34578;0.000;0.000;2023-10-19T01:38:15;2.42;;;1.67;;
48777;SDS011;34578;0.000;0.000;2023-10-19T01:43:16;2.75;;;2.10;;
48777;SDS011;34578;0.000;0.000;2023-10-19T01:48:21;2.45;;;1.77;;
48777;SDS011;34578;0.000;0.000;2023-10-19T01:53:28;3.38;;;2.15;;
48777;SDS011;34578;0.000;0.000;2023-10-19T01:58:29;2.10;;;1.90;;
48777;SDS011;34578;0.000;0.000;2023-10-19T02:03:30;3.50;;;1.83;;
48777;SDS011;34578;0.000;0.000;2023-10-19T02:08:32;2.25;;;1.92;;
48777;SDS011;34578;0.000;0.000;2023-10-19T02:13:32;2.70;;;1.67;;
48777;SDS011;34578;0.000;0.000;2023-10-19T02:18:32;2.30;;;1.63;;
48777;SDS011;34578;0.000;0.000;2023-10-19T02:23:35;2.10;;;1.63;;
48777;SDS011;34578;0.000;0.000;2023-10-19T02:28:35;2.20;;;1.70;;
48777;SDS011;34578;0.000;0.000;2023-10-19T02:33:37;2.28;;;1.63;;
48777;SDS011;34578;0.000;0.000;2023-10-19T02:38:41;4.03;;;2.05;;
48777;SDS011;34578;0.000;0.000;2023-10-19T02:43:44;2.30;;;1.95;;
48777;SDS011;34578;0.000;0.000;2023-10-19T02:48:51;2.90;;;1.80;;
48777;SDS011;34578;0.000;0.000;2023-10-19T02:53:51;2.20;;;1.67;;
48777;SDS011;34578;0.000;0.000;2023-10-19T02:58:52;2.70;;;1.77;;
48777;SDS011;34578;0.000;0.000;2023-10-19T03:03:54;3.55;;;1.88;;
48777;SDS011;34578;0.000;0.000;2023-10-19T03:08:58;2.13;;;1.73;;
48777;SDS011;34578;0.000;0.000;2023-10-19T03:14:01;4.05;;;1.90;;
48777;SDS011;34578;0.000;0.000;2023-10-19T03:19:05;2.40;;;1.95;;
48777;SDS011;34578;0.000;0.000;2023-10-19T03:24:08;2.30;;;1.52;;
48777;SDS011;34578;0.000;0.000;2023-10-19T03:29:27;4.95;;;2.13;;
48777;SDS011;34578;0.000;0.000;2023-10-19T03:34:31;1.95;;;1.50;;
48777;SDS011;34578;0.000;0.000;2023-10-19T03:39:33;6.43;;;1.70;;
48777;SDS011;34578;0.000;0.000;2023-10-19T03:44:34;1.95;;;1.38;;
48777;SDS011;34578;0.000;0.000;2023-10-19T03:49:41;3.08;;;2.15;;
48777;SDS011;34578;0.000;0.000;2023-10-19T03:54:42;3.10;;;1.70;;
48777;SDS011;34578;0.000;0.000;2023-10-19T03:59:42;2.85;;;1.50;;
48777;SDS011;34578;0.000;0.000;2023-10-19T04:04:43;3.43;;;1.87;;
48777;SDS011;34578;0.000;0.000;2023-10-19T04:09:43;2.83;;;1.50;;
48777;SDS011;34578;0.000;0.000;2023-10-19T04:15:03;2.90;;;1.88;;
48777;SDS011;34578;0.000;0.000;2023-10-19T04:20:18;4.50;;;1.80;;
48777;SDS011;34578;0.000;0.000;2023-10-19T04:25:19;2.20;;;1.60;;
48777;SDS011;34578;0.000;0.000;2023-10-19T04:30:20;3.00;;;1.88;;
48777;SDS011;34578;0.000;0.000;2023-10-19T04:35:26;2.55;;;1.50;;
48777;SDS011;34578;0.000;0.000;2023-10-19T04:40:30;1.98;;;1.38;;
48777;SDS011;34578;0.000;0.000;2023-10-19T04:45:30;2.07;;;1.10;;
48777;SDS011;34578;0.000;0.000;2023-10-19T04:50:31;4.17;;;1.73;;
48777;SDS011;34578;0.000;0.000;2023-10-19T04:55:31;4.38;;;1.90;;
48777;SDS011;34578;0.000;0.000;2023-10-19T05:00:32;4.10;;;1.85;;
48777;SDS011;34578;0.000;0.000;2023-10-19T05:05:33;7.38;;;2.00;;
48777;SDS011;34578;0.000;0.000;2023-10-19T05:10:35;6.25;;;1.80;;
48777;SDS011;34578;0.000;0.000;2023-10-19T05:15:37;3.95;;;1.88;;
48777;SDS011;34578;0.000;0.000;2023-10-19T05:20:38;3.05;;;1.40;;
48777;SDS011;34578;0.000;0.000;2023-10-19T05:25:40;4.55;;;1.42;;
48777;SDS011;34578;0.000;0.000;2023-10-19T05:30:41;2.88;;;1.10;;
48777;SDS011;34578;0.000;0.000;2023-10-19T05:35:41;4.27;;;2.30;;
48777;SDS011;34578;0.000;0.000;2023-10-19T05:40:43;4.50;;;1.60;;
48777;SDS011;34578;0.000;0.000;2023-10-19T05:45:44;6.43;;;1.47;;
48777;SDS011;34578;0.000;0.000;2023-10-19T05:50:45;2.58;;;1.40;;
48777;SDS011;34578;0.000;0.000;2023-10-19T05:55:45;4.03;;;1.60;;
48777;SDS011;34578;0.000;0.000;2023-10-19T06:00:48;7.00;;;1.58;;
48777;SDS011;34578;0.000;0.000;2023-10-19T06:05:52;3.65;;;1.65;;
48777;SDS011;34578;0.000;0.000;2023-10-19T06:10:56;5.68;;;1.67;;
48777;SDS011;34578;0.000;0.000;2023-10-19T06:15:56;6.60;;;1.83;;
48777;SDS011;34578;0.000;0.000;2023-10-19T06:20:57;4.93;;;1.20;;
48777;SDS011;34578;0.000;0.000;2023-10-19T06:25:57;2.80;;;1.30;;
48777;SDS011;34578;0.000;0.000;2023-10-19T06:30:58;4.32;;;1.55;;
48777;SDS011;34578;0.000;0.000;2023-10-19T06:35:58;2.08;;;1.55;;
48777;SDS011;34578;0.000;0.000;2023-10-19T06:41:00;5.35;;;1.63;;
48777;SDS011;34578;0.000;0.000;2023-10-19T06:46:02;3.88;;;1.50;;
48777;SDS011;34578;0.000;0.000;2023-10-19T06:51:03;2.75;;;1.40;;
48777;SDS011;34578;0.000;0.000;2023-10-19T06:56:05;3.33;;;1.52;;
48777;SDS011;34578;0.000;0.000;2023-10-19T07:01:07;3.50;;;1.30;;
48777;SDS011;34578;0.000;0.000;2023-10-19T07:06:08;1.83;;;1.10;;
48777;SDS011;34578;0.000;0.000;2023-10-19T07:11:13;2.75;;;1.35;;
48777;SDS011;34578;0.000;0.000;2023-10-19T07:16:13;2.97;;;1.23;;
48777;SDS011;34578;0.000;0.000;2023-10-19T07:21:14;2.58;;;1.83;;
48777;SDS011;34578;0.000;0.000;2023-10-19T07:26:15;1.88;;;1.00;;
48777;SDS011;34578;0.000;0.000;2023-10-19T07:31:17;1.95;;;1.15;;
48777;SDS011;34578;0.000;0.000;2023-10-19T07:36:17;1.60;;;1.23;;
48777;SDS011;34578;0.000;0.000;2023-10-19T07:41:18;1.45;;;1.08;;
48777;SDS011;34578;0.000;0.000;2023-10-19T07:46:19;1.87;;;1.37;;
48777;SDS011;34578;0.000;0.000;2023-10-19T07:51:19;1.50;;;1.00;;
48777;SDS011;34578;0.000;0.000;2023-10-19T07:56:19;1.60;;;1.25;;
48777;SDS011;34578;0.000;0.000;2023-10-19T08:01:21;2.65;;;1.23;;
48777;SDS011;34578;0.000;0.000;2023-10-19T08:06:21;2.30;;;1.37;;
48777;SDS011;34578;0.000;0.000;2023-10-19T08:11:21;4.43;;;1.60;;
48777;SDS011;34578;0.000;0.000;2023-10-19T08:16:22;3.43;;;1.53;;
48777;SDS011;34578;0.000;0.000;2023-10-19T08:21:24;12.30;;;3.03;;
48777;SDS011;34578;0.000;0.000;2023-10-19T08:26:25;11.38;;;3.88;;
48777;SDS011;34578;0.000;0.000;2023-10-19T08:31:25;13.63;;;3.13;;
48777;SDS011;34578;0.000;0.000;2023-10-19T08:36:25;6.45;;;2.45;;
48777;SDS011;34578;0.000;0.000;2023-10-19T08:41:27;7.32;;;2.70;;
48777;SDS011;34578;0.000;0.000;2023-10-19T08:46:27;12.67;;;4.50;;
48777;SDS011;34578;0.000;0.000;2023-10-19T08:51:28;13.90;;;2.60;;
48777;SDS011;34578;0.000;0.000;2023-10-19T08:56:29;15.73;;;2.58;;
48777;SDS011;34578;0.000;0.000;2023-10-19T09:01:29;12.70;;;2.37;;
48777;SDS011;34578;0.000;0.000;2023-10-19T09:06:30;8.55;;;2.83;;
48777;SDS011;34578;0.000;0.000;2023-10-19T09:11:31;8.82;;;2.75;;
48777;SDS011;34578;0.000;0.000;2023-10-19T09:16:31;6.37;;;1.93;;
48777;SDS011;34578;0.000;0.000;2023-10-19T09:21:32;7.82;;;2.65;;
48777;SDS011;34578;0.000;0.000;2023-10-19T09:26:33;7.03;;;2.55;;
48777;SDS011;34578;0.000;0.000;2023-10-19T09:31:33;6.00;;;2.90;;
48777;SDS011;34578;0.000;0.000;2023-10-19T09:36:35;8.10;;;2.30;;
48777;SDS011;34578;0.000;0.000;2023-10-19T09:41:36;11.00;;;3.35;;
48777;SDS011;34578;0.000;0.000;2023-10-19T09:46:38;8.15;;;2.88;;
48777;SDS011;34578;0.000;0.000;2023-10-19T09:51:40;7.70;;;3.00;;
48777;SDS011;34578;0.000;0.000;2023-10-19T09:56:43;11.20;;;3.13;;
48777;SDS011;34578;0.000;0.000;2023-10-19T10:02:07;8.27;;;3.65;;
48777;SDS011;34578;0.000;0.000;2023-10-19T10:07:15;11.63;;;3.25;;
48777;SDS011;34578;0.000;0.000;2023-10-19T10:12:24;11.93;;;3.40;;
48777;SDS011;34578;0.000;0.000;2023-10-19T10:17:27;9.85;;;3.03;;
48777;SDS011;34578;0.000;0.000;2023-10-19T10:22:27;7.70;;;3.67;;
48777;SDS011;34578;0.000;0.000;2023-10-19T10:27:28;12.20;;;4.17;;
48777;SDS011;34578;0.000;0.000;2023-10-19T10:37:54;7.18;;;3.00;;
48777;SDS011;34578;0.000;0.000;2023-10-19T10:43:04;7.43;;;3.85;;
48777;SDS011;34578;0.000;0.000;2023-10-19T10:48:15;6.60;;;3.92;;
48777;SDS011;34578;0.000;0.000;2023-10-19T10:53:22;9.77;;;3.08;;
48777;SDS011;34578;0.000;0.000;2023-10-19T10:58:24;10.35;;;3.55;;
48777;SDS011;34578;0.000;0.000;2023-10-19T11:03:25;10.20;;;3.60;;
48777;SDS011;34578;0.000;0.000;2023-10-19T11:08:31;13.65;;;4.03;;
48777;SDS011;34578;0.000;0.000;2023-10-19T11:13:33;7.13;;;4.60;;
48777;SDS011;34578;0.000;0.000;2023-10-19T11:18:36;10.68;;;3.40;;
48777;SDS011;34578;0.000;0.000;2023-10-19T11:23:48;17.23;;;3.85;;
48777;SDS011;34578;0.000;0.000;2023-10-19T11:28:59;7.75;;;3.53;;
48777;SDS011;34578;0.000;0.000;2023-10-19T11:34:00;18.15;;;5.32;;
48777;SDS011;34578;0.000;0.000;2023-10-19T11:39:01;16.60;;;4.97;;
48777;SDS011;34578;0.000;0.000;2023-10-19T11:44:01;13.52;;;3.85;;
48777;SDS011;34578;0.000;0.000;2023-10-19T11:49:02;12.57;;;3.97;;
48777;SDS011;34578;0.000;0.000;2023-10-19T11:54:06;8.35;;;3.72;;
48777;SDS011;34578;0.000;0.000;2023-10-19T11:59:06;8.88;;;3.33;;
48777;SDS011;34578;0.000;0.000;2023-10-19T12:04:07;17.45;;;3.95;;
48777;SDS011;34578;0.000;0.000;2023-10-19T12:09:09;7.75;;;4.10;;
48777;SDS011;34578;0.000;0.000;2023-10-19T12:14:15;7.63;;;3.40;;
48777;SDS011;34578;0.000;0.000;2023-10-19T12:19:16;8.50;;;3.13;;
48777;SDS011;34578;0.000;0.000;2023-10-19T12:24:19;12.00;;;3.88;;
48777;SDS011;34578;0.000;0.000;2023-10-19T12:29:20;6.57;;;3.15;;
48777;SDS011;34578;0.000;0.000;2023-10-19T12:34:21;9.90;;;3.28;;
48777;SDS011;34578;0.000;0.000;2023-10-19T12:39:22;7.97;;;2.75;;
48777;SDS011;34578;0.000;0.000;2023-10-19T12:44:35;4.05;;;2.30;;
48777;SDS011;34578;0.000;0.000;2023-10-19T12:49:43;12.10;;;4.07;;
48777;SDS011;34578;0.000;0.000;2023-10-19T12:54:46;7.93;;;2.83;;
48777;SDS011;34578;0.000;0.000;2023-10-19T12:59:51;6.55;;;2.90;;
48777;SDS011;34578;0.000;0.000;2023-10-19T13:04:51;5.50;;;2.87;;
48777;SDS011;34578;0.000;0.000;2023-10-19T13:09:51;4.37;;;2.50;;
48777;SDS011;34578;0.000;0.000;2023-10-19T13:14:52;5.72;;;2.45;;
48777;SDS011;34578;0.000;0.000;2023-10-19T13:19:52;10.47;;;2.53;;
48777;SDS011;34578;0.000;0.000;2023-10-19T13:24:56;6.78;;;2.90;;
48777;SDS011;34578;0.000;0.000;2023-10-19T13:29:56;2.67;;;2.10;;
48777;SDS011;34578;0.000;0.000;2023-10-19T13:34:57;7.20;;;2.67;;
48777;SDS011;34578;0.000;0.000;2023-10-19T13:39:57;17.60;;;2.47;;
48777;SDS011;34578;0.000;0.000;2023-10-19T13:44:59;8.05;;;3.08;;
48777;SDS011;34578;0.000;0.000;2023-10-19T13:49:59;15.88;;;3.90;;
48777;SDS011;34578;0.000;0.000;2023-10-19T13:55:01;24.35;;;4.65;;
48777;SDS011;34578;0.000;0.000;2023-10-19T14:00:01;8.25;;;3.20;;
48777;SDS011;34578;0.000;0.000;2023-10-19T14:05:02;9.05;;;3.30;;
48777;SDS011;34578;0.000;0.000;2023-10-19T14:10:04;6.80;;;2.60;;
48777;SDS011;34578;0.000;0.000;2023-10-19T14:15:08;9.40;;;3.20;;
48777;SDS011;34578;0.000;0.000;2023-10-19T14:20:19;16.88;;;3.50;;
48777;SDS011;34578;0.000;0.000;2023-10-19T14:25:20;35.00;;;5.78;;
48777;SDS011;34578;0.000;0.000;2023-10-19T14:30:23;26.73;;;5.97;;
48777;SDS011;34578;0.000;0.000;2023-10-19T14:35:25;28.05;;;5.60;;
48777;SDS011;34578;0.000;0.000;2023-10-19T14:40:26;25.53;;;5.00;;
48777;SDS011;34578;0.000;0.000;2023-10-19T14:45:28;18.38;;;4.90;;
48777;SDS011;34578;0.000;0.000;2023-10-19T14:50:32;14.23;;;4.43;;
48777;SDS011;34578;0.000;0.000;2023-10-19T14:55:32;10.90;;;3.33;;
48777;SDS011;34578;0.000;0.000;2023-10-19T15:00:33;23.87;;;5.17;;
48777;SDS011;34578;0.000;0.000;2023-10-19T15:05:43;23.48;;;4.78;;
48777;SDS011;34578;0.000;0.000;2023-10-19T15:10:43;21.27;;;6.10;;
48777;SDS011;34578;0.000;0.000;2023-10-19T15:15:44;20.37;;;5.00;;
48777;SDS011;34578;0.000;0.000;2023-10-19T15:20:44;11.77;;;4.30;;
48777;SDS011;34578;0.000;0.000;2023-10-19T15:25:44;13.10;;;4.10;;
48777;SDS011;34578;0.000;0.000;2023-10-19T15:30:45;15.02;;;5.00;;
48777;SDS011;34578;0.000;0.000;2023-10-19T15:35:47;16.10;;;4.13;;
48777;SDS011;34578;0.000;0.000;2023-10-19T15:40:48;20.23;;;6.35;;
48777;SDS011;34578;0.000;0.000;2023-10-19T15:45:49;21.55;;;5.47;;
48777;SDS011;34578;0.000;0.000;2023-10-19T15:50:49;19.60;;;4.73;;
48777;SDS011;34578;0.000;0.000;2023-10-19T15:55:49;21.03;;;5.13;;
48777;SDS011;34578;0.000;0.000;2023-10-19T16:00:51;15.30;;;4.43;;
48777;SDS011;34578;0.000;0.000;2023-10-19T16:05:51;18.60;;;4.05;;
48777;SDS011;34578;0.000;0.000;2023-10-19T16:10:52;22.37;;;5.57;;
48777;SDS011;34578;0.000;0.000;2023-10-19T16:15:53;15.50;;;5.25;;
48777;SDS011;34578;0.000;0.000;2023-10-19T16:20:55;21.83;;;5.03;;
48777;SDS011;34578;0.000;0.000;2023-10-19T16:25:58;17.87;;;4.60;;
48777;SDS011;34578;0.000;0.000;2023-10-19T16:31:01;25.00;;;5.88;;
48777;SDS011;34578;0.000;0.000;2023-10-19T16:36:03;12.88;;;4.72;;
48777;SDS011;34578;0.000;0.000;2023-10-19T16:41:04;17.90;;;5.70;;
48777;SDS011;34578;0.000;0.000;2023-10-19T16:46:05;17.98;;;4.38;;
48777;SDS011;34578;0.000;0.000;2023-10-19T16:51:05;20.20;;;4.10;;
48777;SDS011;34578;0.000;0.000;2023-10-19T16:56:06;19.65;;;4.45;;
48777;SDS011;34578;0.000;0.000;2023-10-19T17:01:07;13.33;;;4.57;;
48777;SDS011;34578;0.000;0.000;2023-10-19T17:06:09;16.77;;;4.97;;
48777;SDS011;34578;0.000;0.000;2023-10-19T17:11:10;14.00;;;4.05;;
48777;SDS011;34578;0.000;0.000;2023-10-19T17:16:11;10.60;;;3.45;;
48777;SDS011;34578;0.000;0.000;2023-10-19T17:21:12;17.00;;;4.80;;
48777;SDS011;34578;0.000;0.000;2023-10-19T17:26:12;12.13;;;4.43;;
48777;SDS011;34578;0.000;0.000;2023-10-19T17:31:13;11.38;;;4.43;;
48777;SDS011;34578;0.000;0.000;2023-10-19T17:36:14;16.50;;;4.87;;
48777;SDS011;34578;0.000;0.000;2023-10-19T17:41:14;13.90;;;4.90;;
48777;SDS011;34578;0.000;0.000;2023-10-19T17:46:15;11.25;;;4.35;;
48777;SDS011;34578;0.000;0.000;2023-10-19T17:51:15;11.80;;;4.73;;
48777;SDS011;34578;0.000;0.000;2023-10-19T17:56:16;16.08;;;4.60;;
48777;SDS011;34578;0.000;0.000;2023-10-19T18:01:17;10.48;;;4.43;;
48777;SDS011;34578;0.000;0.000;2023-10-19T18:06:18;20.13;;;4.57;;
48777;SDS011;34578;0.000;0.000;2023-10-19T18:11:19;12.10;;;3.97;;
48777;SDS011;34578;0.000;0.000;2023-10-19T18:16:19;7.60;;;3.78;;
48777;SDS011;34578;0.000;0.000;2023-10-19T18:21:20;15.70;;;4.60;;
48777;SDS011;34578;0.000;0.000;2023-10-19T18:26:20;16.30;;;4.60;;
48777;SDS011;34578;0.000;0.000;2023-10-19T18:31:20;11.00;;;4.87;;
48777;SDS011;34578;0.000;0.000;2023-10-19T18:36:23;15.10;;;4.82;;
48777;SDS011;34578;0.000;0.000;2023-10-19T18:41:24;11.88;;;5.15;;
48777;SDS011;34578;0.000;0.000;2023-10-19T18:46:26;12.32;;;5.30;;
48777;SDS011;34578;0.000;0.000;2023-10-19T18:51:27;14.32;;;5.53;;
48777;SDS011;34578;0.000;0.000;2023-10-19T18:56:33;11.70;;;5.90;;
48777;SDS011;34578;0.000;0.000;2023-10-19T19:01:34;7.78;;;4.20;;
48777;SDS011;34578;0.000;0.000;2023-10-19T19:06:34;9.90;;;4.60;;
48777;SDS011;34578;0.000;0.000;2023-10-19T19:11:35;12.77;;;4.87;;
48777;SDS011;34578;0.000;0.000;2023-10-19T19:16:35;9.20;;;5.13;;
48777;SDS011;34578;0.000;0.000;2023-10-19T19:21:35;9.43;;;4.50;;
48777;SDS011;34578;0.000;0.000;2023-10-19T19:26:40;9.13;;;4.13;;
48777;SDS011;34578;0.000;0.000;2023-10-19T19:31:40;10.80;;;4.13;;
48777;SDS011;34578;0.000;0.000;2023-10-19T19:36:43;9.18;;;4.63;;
48777;SDS011;34578;0.000;0.000;2023-10-19T19:41:44;10.32;;;4.00;;
48777;SDS011;34578;0.000;0.000;2023-10-19T19:46:45;6.78;;;3.55;;
48777;SDS011;34578;0.000;0.000;2023-10-19T19:51:46;5.23;;;3.63;;
48777;SDS011;34578;0.000;0.000;2023-10-19T19:56:46;9.57;;;3.70;;
48777;SDS011;34578;0.000;0.000;2023-10-19T20:01:46;10.03;;;3.90;;
48777;SDS011;34578;0.000;0.000;2023-10-19T20:06:47;4.90;;;3.23;;
48777;SDS011;34578;0.000;0.000;2023-10-19T20:11:47;6.57;;;3.50;;
48777;SDS011;34578;0.000;0.000;2023-10-19T20:16:48;6.60;;;3.67;;
48777;SDS011;34578;0.000;0.000;2023-10-19T20:21:48;9.37;;;4.00;;
48777;SDS011;34578;0.000;0.000;2023-10-19T20:26:49;5.93;;;2.80;;
48777;SDS011;34578;0.000;0.000;2023-10-19T20:31:49;7.82;;;3.42;;
48777;SDS011;34578;0.000;0.000;2023-10-19T20:36:51;5.47;;;3.00;;
48777;SDS011;34578;0.000;0.000;2023-10-19T20:41:52;7.13;;;2.83;;
48777;SDS011;34578;0.000;0.000;2023-10-19T20:46:53;6.70;;;3.50;;
48777;SDS011;34578;0.000;0.000;2023-10-19T20:51:54;6.67;;;2.70;;
48777;SDS011;34578;0.000;0.000;2023-10-19T20:56:54;5.47;;;3.50;;
48777;SDS011;34578;0.000;0.000;2023-10-19T21:01:54;9.23;;;3.70;;
48777;SDS011;34578;0.000;0.000;2023-10-19T21:06:57;7.05;;;3.38;;
48777;SDS011;34578;0.000;0.000;2023-10-19T21:11:57;7.35;;;3.28;;
48777;SDS011;34578;0.000;0.000;2023-10-19T21:16:58;9.13;;;3.00;;
48777;SDS011;34578;0.000;0.000;2023-10-19T21:21:58;8.23;;;3.08;;
48777;SDS011;34578;0.000;0.000;2023-10-19T21:27:00;9.25;;;3.33;;
48777;SDS011;34578;0.000;0.000;2023-10-19T21:32:00;7.27;;;3.30;;
48777;SDS011;34578;0.000;0.000;2023-10-19T21:37:00;7.83;;;3.27;;
48777;SDS011;34578;0.000;0.000;2023-10-19T21:42:01;13.73;;;3.53;;
48777;SDS011;34578;0.000;0.000;2023-10-19T21:47:01;8.37;;;3.47;;
48777;SDS011;34578;0.000;0.000;2023-10-19T21:52:02;5.73;;;3.03;;
48777;SDS011;34578;0.000;0.000;2023-10-19T21:57:02;10.17;;;3.37;;
48777;SDS011;34578;0.000;0.000;2023-10-19T22:02:03;8.65;;;3.45;;
48777;SDS011;34578;0.000;0.000;2023-10-19T22:07:04;7.73;;;3.37;;
48777;SDS011;34578;0.000;0.000;2023-10-19T22:12:05;9.50;;;4.18;;
48777;SDS011;34578;0.000;0.000;2023-10-19T22:17:06;9.38;;;3.35;;
48777;SDS011;34578;0.000;0.000;2023-10-19T22:22:06;6.68;;;2.78;;
48777;SDS011;34578;0.000;0.000;2023-10-19T22:27:07;7.43;;;3.03;;
48777;SDS011;34578;0.000;0.000;2023-10-19T22:32:08;8.03;;;3.10;;
48777;SDS011;34578;0.000;0.000;2023-10-19T22:37:09;8.15;;;3.53;;
48777;SDS011;34578;0.000;0.000;2023-10-19T22:42:11;9.60;;;3.25;;
48777;SDS011;34578;0.000;0.000;2023-10-19T22:47:12;7.43;;;2.78;;
48777;SDS011;34578;0.000;0.000;2023-10-19T22:52:12;6.15;;;3.05;;
48777;SDS011;34578;0.000;0.000;2023-10-19T22:57:13;5.10;;;2.80;;
48777;SDS011;34578;0.000;0.000;2023-10-19T23:02:13;7.15;;;2.85;;
48777;SDS011;34578;0.000;0.000;2023-10-19T23:07:14;5.87;;;2.90;;
48777;SDS011;34578;0.000;0.000;2023-10-19T23:12:14;4.40;;;2.37;;
48777;SDS011;34578;0.000;0.000;2023-10-19T23:17:17;6.78;;;2.47;;
48777;SDS011;34578;0.000;0.000;2023-10-19T23:22:29;7.75;;;3.50;;
48777;SDS011;34578;0.000;0.000;2023-10-19T23:27:30;6.68;;;2.55;;
48777;SDS011;34578;0.000;0.000;2023-10-19T23:32:31;3.70;;;2.00;;
48777;SDS011;34578;0.000;0.000;2023-10-19T23:37:31;5.15;;;2.38;;
48777;SDS011;34578;0.000;0.000;2023-10-19T23:42:32;6.93;;;3.13;;
48777;SDS011;34578;0.000;0.000;2023-10-19T23:47:32;9.10;;;2.60;;
48777;SDS011;34578;0.000;0.000;2023-10-19T23:52:33;5.60;;;2.40;;
48777;SDS011;34578;0.000;0.000;2023-10-19T23:57:34;6.13;;;2.33;;
